Ambridge, Pennsylvania
Current Conditions -  °F | °C
As of 1:51 AM on Sunday 26 Oct 2014 (Local Time) from KPIT Reporting Station
Clear Clear  
Wind Chill: 54°   Ceiling: Unl
Heat Index: 54°   Visibility: 10mi
Dew Point: 32°   Wind: 14mph
Humidity: 43%   Direction: 310°NW
Pressure: 29.8"   Gusts: NA
Location:  40.59°N, 80.23°W
Report Text: KPIT 260551Z 31012KT 10SM CLR 12/00 A2980 RMK AO2 SLP096 T01220000 10167 20122 51010
Loading
Personal Weather Stations






























Interactive Weather Map
Tropical Storm Tracking
New forecast layout! Learn more

10-Day Weather Forecast

Advertisements
Track Severe Weather on mobile